sensor_id;sensor_type;location;lat;lon;timestamp;pressure;altitude;pressure_sealevel;temperature;humidity
29045;BME280;16133;49.486;12.176;2024-01-15T00:01:42;95983.72;;;-4.74;100.00
29045;BME280;16133;49.486;12.176;2024-01-15T00:04:07;95976.75;;;-4.62;100.00
29045;BME280;16133;49.486;12.176;2024-01-15T00:06:32;95981.22;;;-4.53;100.00
29045;BME280;16133;49.486;12.176;2024-01-15T00:08:58;95979.88;;;-4.48;100.00
29045;BME280;16133;49.486;12.176;2024-01-15T00:11:24;95987.88;;;-4.40;100.00
29045;BME280;16133;49.486;12.176;2024-01-15T00:13:49;95988.78;;;-4.29;100.00
29045;BME280;16133;49.486;12.176;2024-01-15T00:16:14;95990.75;;;-4.22;100.00
29045;BME280;16133;49.486;12.176;2024-01-15T00:18:40;95998.69;;;-4.14;100.00
29045;BME280;16133;49.486;12.176;2024-01-15T00:21:05;95998.06;;;-4.06;100.00
29045;BME280;16133;49.486;12.176;2024-01-15T00:23:31;96002.78;;;-4.00;100.00
29045;BME280;16133;49.486;12.176;2024-01-15T00:25:56;95997.47;;;-3.99;100.00
29045;BME280;16133;49.486;12.176;2024-01-15T00:28:21;96000.22;;;-3.91;100.00
29045;BME280;16133;49.486;12.176;2024-01-15T00:30:47;95999.88;;;-3.86;100.00
29045;BME280;16133;49.486;12.176;2024-01-15T00:33:12;95992.81;;;-3.84;100.00
29045;BME280;16133;49.486;12.176;2024-01-15T00:35:39;96001.00;;;-3.79;100.00
29045;BME280;16133;49.486;12.176;2024-01-15T00:38:05;95999.22;;;-3.78;100.00
29045;BME280;16133;49.486;12.176;2024-01-15T00:40:30;95999.69;;;-3.73;100.00
29045;BME280;16133;49.486;12.176;2024-01-15T00:42:55;95992.59;;;-3.71;100.00
29045;BME280;16133;49.486;12.176;2024-01-15T00:45:21;95986.34;;;-3.69;100.00
29045;BME280;16133;49.486;12.176;2024-01-15T00:47:47;95989.00;;;-3.80;100.00
29045;BME280;16133;49.486;12.176;2024-01-15T00:50:12;95990.13;;;-3.73;100.00
29045;BME280;16133;49.486;12.176;2024-01-15T00:52:37;95980.19;;;-3.68;100.00
29045;BME280;16133;49.486;12.176;2024-01-15T00:55:03;95982.56;;;-3.65;100.00
29045;BME280;16133;49.486;12.176;2024-01-15T00:57:29;95990.97;;;-3.72;100.00
29045;BME280;16133;49.486;12.176;2024-01-15T00:59:54;95989.75;;;-3.68;100.00
29045;BME280;16133;49.486;12.176;2024-01-15T01:02:19;95988.69;;;-3.66;100.00
29045;BME280;16133;49.486;12.176;2024-01-15T01:04:45;95994.25;;;-3.70;100.00
29045;BME280;16133;49.486;12.176;2024-01-15T01:07:10;95996.53;;;-3.77;100.00
29045;BME280;16133;49.486;12.176;2024-01-15T01:09:35;95996.91;;;-3.81;100.00
29045;BME280;16133;49.486;12.176;2024-01-15T01:12:01;95993.00;;;-3.76;100.00
29045;BME280;16133;49.486;12.176;2024-01-15T01:14:26;95981.00;;;-3.67;100.00
29045;BME280;16133;49.486;12.176;2024-01-15T01:16:52;95992.72;;;-3.73;100.00
29045;BME280;16133;49.486;12.176;2024-01-15T01:19:17;96000.81;;;-3.87;100.00
29045;BME280;16133;49.486;12.176;2024-01-15T01:21:42;95994.38;;;-3.93;100.00
29045;BME280;16133;49.486;12.176;2024-01-15T01:24:08;95992.97;;;-3.97;100.00
29045;BME280;16133;49.486;12.176;2024-01-15T01:26:33;96000.75;;;-3.97;100.00
29045;BME280;16133;49.486;12.176;2024-01-15T01:28:58;96023.91;;;-3.84;100.00
29045;BME280;16133;49.486;12.176;2024-01-15T01:31:24;96027.69;;;-3.88;100.00
29045;BME280;16133;49.486;12.176;2024-01-15T01:33:50;96043.34;;;-3.90;100.00
29045;BME280;16133;49.486;12.176;2024-01-15T01:36:15;96038.97;;;-3.89;100.00
29045;BME280;16133;49.486;12.176;2024-01-15T01:38:41;96031.31;;;-3.91;100.00
29045;BME280;16133;49.486;12.176;2024-01-15T01:41:06;96031.09;;;-3.88;100.00
29045;BME280;16133;49.486;12.176;2024-01-15T01:43:32;96037.28;;;-3.79;100.00
29045;BME280;16133;49.486;12.176;2024-01-15T01:45:58;96039.81;;;-3.89;100.00
29045;BME280;16133;49.486;12.176;2024-01-15T01:48:25;96022.28;;;-3.96;100.00
29045;BME280;16133;49.486;12.176;2024-01-15T01:50:52;96013.81;;;-3.98;100.00
29045;BME280;16133;49.486;12.176;2024-01-15T01:53:18;96026.66;;;-3.97;100.00
29045;BME280;16133;49.486;12.176;2024-01-15T01:55:46;96024.69;;;-4.04;100.00
29045;BME280;16133;49.486;12.176;2024-01-15T01:58:12;96026.56;;;-4.06;100.00
29045;BME280;16133;49.486;12.176;2024-01-15T02:00:37;96047.88;;;-4.03;100.00
29045;BME280;16133;49.486;12.176;2024-01-15T02:03:03;96036.91;;;-3.95;100.00
29045;BME280;16133;49.486;12.176;2024-01-15T02:05:28;96031.16;;;-3.99;100.00
29045;BME280;16133;49.486;12.176;2024-01-15T02:07:55;96047.38;;;-3.97;100.00
29045;BME280;16133;49.486;12.176;2024-01-15T02:10:20;96033.22;;;-3.93;100.00
29045;BME280;16133;49.486;12.176;2024-01-15T02:12:46;96039.09;;;-3.91;100.00
29045;BME280;16133;49.486;12.176;2024-01-15T02:15:13;96026.97;;;-3.90;100.00
29045;BME280;16133;49.486;12.176;2024-01-15T02:20:23;96026.72;;;-3.87;100.00
29045;BME280;16133;49.486;12.176;2024-01-15T02:22:49;96032.72;;;-3.87;100.00
29045;BME280;16133;49.486;12.176;2024-01-15T02:25:14;96039.28;;;-3.82;100.00
29045;BME280;16133;49.486;12.176;2024-01-15T02:27:40;96033.53;;;-3.86;100.00
29045;BME280;16133;49.486;12.176;2024-01-15T02:30:08;96038.31;;;-3.91;100.00
29045;BME280;16133;49.486;12.176;2024-01-15T02:32:34;96042.41;;;-3.89;100.00
29045;BME280;16133;49.486;12.176;2024-01-15T02:35:00;96039.91;;;-3.90;100.00
29045;BME280;16133;49.486;12.176;2024-01-15T02:37:25;96037.59;;;-3.93;100.00
29045;BME280;16133;49.486;12.176;2024-01-15T02:39:50;96031.66;;;-3.84;100.00
29045;BME280;16133;49.486;12.176;2024-01-15T02:42:16;96041.56;;;-3.89;100.00
29045;BME280;16133;49.486;12.176;2024-01-15T02:44:41;96037.91;;;-3.87;100.00
29045;BME280;16133;49.486;12.176;2024-01-15T02:47:06;96053.34;;;-3.85;100.00
29045;BME280;16133;49.486;12.176;2024-01-15T02:49:32;96050.47;;;-3.82;100.00
29045;BME280;16133;49.486;12.176;2024-01-15T02:51:57;96059.91;;;-3.81;100.00
29045;BME280;16133;49.486;12.176;2024-01-15T02:54:23;96061.56;;;-3.80;100.00
29045;BME280;16133;49.486;12.176;2024-01-15T02:56:48;96050.22;;;-3.79;100.00
29045;BME280;16133;49.486;12.176;2024-01-15T02:59:13;96052.97;;;-3.80;100.00
29045;BME280;16133;49.486;12.176;2024-01-15T03:01:39;96049.66;;;-3.82;100.00
29045;BME280;16133;49.486;12.176;2024-01-15T03:04:04;96044.38;;;-3.81;100.00
29045;BME280;16133;49.486;12.176;2024-01-15T03:06:29;96046.69;;;-3.78;100.00
29045;BME280;16133;49.486;12.176;2024-01-15T03:08:55;96039.75;;;-3.77;100.00
29045;BME280;16133;49.486;12.176;2024-01-15T03:11:20;96036.59;;;-3.81;100.00
29045;BME280;16133;49.486;12.176;2024-01-15T03:13:46;96039.88;;;-3.79;100.00
29045;BME280;16133;49.486;12.176;2024-01-15T03:16:11;96041.78;;;-3.81;100.00
29045;BME280;16133;49.486;12.176;2024-01-15T03:18:36;96044.09;;;-3.78;100.00
29045;BME280;16133;49.486;12.176;2024-01-15T03:21:02;96044.81;;;-3.76;100.00
29045;BME280;16133;49.486;12.176;2024-01-15T03:23:27;96036.06;;;-3.75;100.00
29045;BME280;16133;49.486;12.176;2024-01-15T03:25:52;96041.97;;;-3.73;100.00
29045;BME280;16133;49.486;12.176;2024-01-15T03:28:18;96032.28;;;-3.71;100.00
29045;BME280;16133;49.486;12.176;2024-01-15T03:30:43;96029.69;;;-3.71;100.00
29045;BME280;16133;49.486;12.176;2024-01-15T03:33:08;96035.44;;;-3.67;100.00
29045;BME280;16133;49.486;12.176;2024-01-15T03:35:34;96028.25;;;-3.64;100.00
29045;BME280;16133;49.486;12.176;2024-01-15T03:37:59;96025.53;;;-3.62;100.00
29045;BME280;16133;49.486;12.176;2024-01-15T03:40:25;96028.94;;;-3.62;100.00
29045;BME280;16133;49.486;12.176;2024-01-15T03:42:51;96027.03;;;-3.60;100.00
29045;BME280;16133;49.486;12.176;2024-01-15T03:45:16;96016.00;;;-3.62;100.00
29045;BME280;16133;49.486;12.176;2024-01-15T03:47:41;96023.38;;;-3.57;100.00
29045;BME280;16133;49.486;12.176;2024-01-15T03:50:07;96029.13;;;-3.54;100.00
29045;BME280;16133;49.486;12.176;2024-01-15T03:52:32;96028.31;;;-3.54;100.00
29045;BME280;16133;49.486;12.176;2024-01-15T03:54:58;96020.41;;;-3.53;100.00
29045;BME280;16133;49.486;12.176;2024-01-15T03:57:23;96014.41;;;-3.53;100.00
29045;BME280;16133;49.486;12.176;2024-01-15T03:59:49;96022.88;;;-3.51;100.00
29045;BME280;16133;49.486;12.176;2024-01-15T04:02:14;96016.84;;;-3.52;100.00
29045;BME280;16133;49.486;12.176;2024-01-15T04:04:43;96004.59;;;-3.50;100.00
29045;BME280;16133;49.486;12.176;2024-01-15T04:07:11;96008.13;;;-3.51;100.00
29045;BME280;16133;49.486;12.176;2024-01-15T04:09:37;95995.19;;;-3.51;100.00
29045;BME280;16133;49.486;12.176;2024-01-15T04:12:03;96003.78;;;-3.50;100.00
29045;BME280;16133;49.486;12.176;2024-01-15T04:14:28;96000.91;;;-3.47;100.00
29045;BME280;16133;49.486;12.176;2024-01-15T04:16:54;95997.38;;;-3.46;100.00
29045;BME280;16133;49.486;12.176;2024-01-15T04:19:19;95994.53;;;-3.43;100.00
29045;BME280;16133;49.486;12.176;2024-01-15T04:21:44;95978.84;;;-3.42;100.00
29045;BME280;16133;49.486;12.176;2024-01-15T04:24:10;95987.31;;;-3.40;100.00
29045;BME280;16133;49.486;12.176;2024-01-15T04:26:35;95990.72;;;-3.39;100.00
29045;BME280;16133;49.486;12.176;2024-01-15T04:29:01;95984.47;;;-3.37;100.00
29045;BME280;16133;49.486;12.176;2024-01-15T04:31:26;95989.53;;;-3.35;100.00
29045;BME280;16133;49.486;12.176;2024-01-15T04:33:54;95998.81;;;-3.32;100.00
29045;BME280;16133;49.486;12.176;2024-01-15T04:36:20;95984.22;;;-3.33;100.00
29045;BME280;16133;49.486;12.176;2024-01-15T04:38:45;95997.97;;;-3.33;100.00
29045;BME280;16133;49.486;12.176;2024-01-15T04:41:13;95986.56;;;-3.30;100.00
29045;BME280;16133;49.486;12.176;2024-01-15T04:43:39;95982.03;;;-3.28;100.00
29045;BME280;16133;49.486;12.176;2024-01-15T04:46:08;95987.94;;;-3.26;100.00
29045;BME280;16133;49.486;12.176;2024-01-15T04:48:33;95979.06;;;-3.24;100.00
29045;BME280;16133;49.486;12.176;2024-01-15T04:50:59;95986.72;;;-3.22;100.00
29045;BME280;16133;49.486;12.176;2024-01-15T04:53:24;95979.88;;;-3.23;100.00
29045;BME280;16133;49.486;12.176;2024-01-15T04:55:50;95971.56;;;-3.17;100.00
29045;BME280;16133;49.486;12.176;2024-01-15T04:58:15;95973.34;;;-3.18;100.00
29045;BME280;16133;49.486;12.176;2024-01-15T05:00:40;95975.25;;;-3.20;100.00
29045;BME280;16133;49.486;12.176;2024-01-15T05:03:06;95968.31;;;-3.19;100.00
29045;BME280;16133;49.486;12.176;2024-01-15T05:05:31;95966.53;;;-3.19;100.00
29045;BME280;16133;49.486;12.176;2024-01-15T05:07:57;95962.97;;;-3.18;100.00
29045;BME280;16133;49.486;12.176;2024-01-15T05:10:22;95952.59;;;-3.18;100.00
29045;BME280;16133;49.486;12.176;2024-01-15T05:12:47;95957.13;;;-3.10;100.00
29045;BME280;16133;49.486;12.176;2024-01-15T05:15:13;95954.25;;;-3.17;100.00
29045;BME280;16133;49.486;12.176;2024-01-15T05:17:38;95961.06;;;-3.16;100.00
29045;BME280;16133;49.486;12.176;2024-01-15T05:20:04;95964.44;;;-3.25;100.00
29045;BME280;16133;49.486;12.176;2024-01-15T05:22:30;95960.53;;;-3.19;100.00
29045;BME280;16133;49.486;12.176;2024-01-15T05:24:55;95956.97;;;-3.18;100.00
29045;BME280;16133;49.486;12.176;2024-01-15T05:27:20;95954.25;;;-3.17;100.00
29045;BME280;16133;49.486;12.176;2024-01-15T05:29:46;95962.19;;;-3.09;100.00
29045;BME280;16133;49.486;12.176;2024-01-15T05:32:11;95967.34;;;-3.18;100.00
29045;BME280;16133;49.486;12.176;2024-01-15T05:34:36;95954.25;;;-3.17;100.00
29045;BME280;16133;49.486;12.176;2024-01-15T05:37:02;95947.84;;;-3.13;100.00
29045;BME280;16133;49.486;12.176;2024-01-15T05:39:27;95949.22;;;-3.09;100.00
29045;BME280;16133;49.486;12.176;2024-01-15T05:41:52;95954.47;;;-2.90;100.00
29045;BME280;16133;49.486;12.176;2024-01-15T05:44:18;95954.31;;;-2.98;100.00
29045;BME280;16133;49.486;12.176;2024-01-15T05:46:43;95963.28;;;-3.02;100.00
29045;BME280;16133;49.486;12.176;2024-01-15T05:49:09;95955.94;;;-2.97;100.00
29045;BME280;16133;49.486;12.176;2024-01-15T05:51:34;95960.03;;;-2.94;100.00
29045;BME280;16133;49.486;12.176;2024-01-15T05:53:59;95951.19;;;-2.92;100.00
29045;BME280;16133;49.486;12.176;2024-01-15T05:56:25;95959.78;;;-2.91;100.00
29045;BME280;16133;49.486;12.176;2024-01-15T05:58:51;95953.50;;;-2.88;100.00
29045;BME280;16133;49.486;12.176;2024-01-15T06:01:17;95949.28;;;-2.90;100.00
29045;BME280;16133;49.486;12.176;2024-01-15T06:03:42;95944.50;;;-2.84;100.00
29045;BME280;16133;49.486;12.176;2024-01-15T06:06:08;95953.25;;;-2.76;100.00
29045;BME280;16133;49.486;12.176;2024-01-15T06:08:34;95951.06;;;-2.80;100.00
29045;BME280;16133;49.486;12.176;2024-01-15T06:10:59;95951.63;;;-2.77;100.00
29045;BME280;16133;49.486;12.176;2024-01-15T06:13:24;95949.84;;;-2.76;100.00
29045;BME280;16133;49.486;12.176;2024-01-15T06:15:50;95940.97;;;-2.74;100.00
29045;BME280;16133;49.486;12.176;2024-01-15T06:18:16;95953.78;;;-2.82;100.00
29045;BME280;16133;49.486;12.176;2024-01-15T06:20:41;95934.13;;;-2.75;100.00
29045;BME280;16133;49.486;12.176;2024-01-15T06:23:06;95956.28;;;-2.80;100.00
29045;BME280;16133;49.486;12.176;2024-01-15T06:25:32;95948.06;;;-2.76;100.00
29045;BME280;16133;49.486;12.176;2024-01-15T06:27:57;95946.16;;;-2.74;100.00
29045;BME280;16133;49.486;12.176;2024-01-15T06:30:22;95959.41;;;-2.77;100.00
29045;BME280;16133;49.486;12.176;2024-01-15T06:32:48;95954.09;;;-2.66;100.00
29045;BME280;16133;49.486;12.176;2024-01-15T06:35:13;95962.56;;;-2.73;100.00
29045;BME280;16133;49.486;12.176;2024-01-15T06:37:39;95948.47;;;-2.71;100.00
29045;BME280;16133;49.486;12.176;2024-01-15T06:40:04;95943.03;;;-2.77;100.00
29045;BME280;16133;49.486;12.176;2024-01-15T06:42:31;95936.06;;;-2.77;100.00
29045;BME280;16133;49.486;12.176;2024-01-15T06:44:56;95939.03;;;-2.72;100.00
29045;BME280;16133;49.486;12.176;2024-01-15T06:47:22;95943.56;;;-2.74;100.00
29045;BME280;16133;49.486;12.176;2024-01-15T06:49:47;95945.88;;;-2.71;100.00
29045;BME280;16133;49.486;12.176;2024-01-15T06:52:12;95943.72;;;-2.66;100.00
29045;BME280;16133;49.486;12.176;2024-01-15T06:54:38;95946.03;;;-2.63;100.00
29045;BME280;16133;49.486;12.176;2024-01-15T06:57:03;95944.38;;;-2.64;100.00
29045;BME280;16133;49.486;12.176;2024-01-15T06:59:29;95949.47;;;-2.62;100.00
29045;BME280;16133;49.486;12.176;2024-01-15T07:01:54;95947.13;;;-2.56;100.00
29045;BME280;16133;49.486;12.176;2024-01-15T07:04:20;95951.66;;;-2.58;100.00
29045;BME280;16133;49.486;12.176;2024-01-15T07:06:45;95951.09;;;-2.52;100.00
29045;BME280;16133;49.486;12.176;2024-01-15T07:09:13;95947.00;;;-2.54;100.00
29045;BME280;16133;49.486;12.176;2024-01-15T07:11:38;95949.47;;;-2.53;100.00
29045;BME280;16133;49.486;12.176;2024-01-15T07:14:04;95949.72;;;-2.56;100.00
29045;BME280;16133;49.486;12.176;2024-01-15T07:16:29;95947.00;;;-2.54;100.00
29045;BME280;16133;49.486;12.176;2024-01-15T07:18:54;95944.81;;;-2.49;100.00
29045;BME280;16133;49.486;12.176;2024-01-15T07:21:20;95936.22;;;-2.50;100.00
29045;BME280;16133;49.486;12.176;2024-01-15T07:23:45;95939.38;;;-2.46;100.00
29045;BME280;16133;49.486;12.176;2024-01-15T07:26:10;95939.63;;;-2.49;100.00
29045;BME280;16133;49.486;12.176;2024-01-15T07:28:36;95939.06;;;-2.53;100.00
29045;BME280;16133;49.486;12.176;2024-01-15T07:31:02;95932.94;;;-2.52;100.00
29045;BME280;16133;49.486;12.176;2024-01-15T07:33:28;95946.84;;;-2.53;100.00
29045;BME280;16133;49.486;12.176;2024-01-15T07:35:54;95935.53;;;-2.52;100.00
29045;BME280;16133;49.486;12.176;2024-01-15T07:38:19;95942.09;;;-2.48;100.00
29045;BME280;16133;49.486;12.176;2024-01-15T07:40:45;95942.78;;;-2.46;100.00
29045;BME280;16133;49.486;12.176;2024-01-15T07:43:14;95940.19;;;-2.46;100.00
29045;BME280;16133;49.486;12.176;2024-01-15T07:45:39;95940.03;;;-2.44;100.00
29045;BME280;16133;49.486;12.176;2024-01-15T07:48:05;95947.31;;;-2.38;100.00
29045;BME280;16133;49.486;12.176;2024-01-15T07:50:31;95941.00;;;-2.35;100.00
29045;BME280;16133;49.486;12.176;2024-01-15T07:52:56;95947.56;;;-2.31;100.00
29045;BME280;16133;49.486;12.176;2024-01-15T07:55:21;95949.06;;;-2.29;100.00
29045;BME280;16133;49.486;12.176;2024-01-15T07:57:47;95957.81;;;-2.20;100.00
29045;BME280;16133;49.486;12.176;2024-01-15T08:00:12;95963.84;;;-2.20;100.00
29045;BME280;16133;49.486;12.176;2024-01-15T08:02:38;95961.78;;;-2.16;100.00
29045;BME280;16133;49.486;12.176;2024-01-15T08:05:04;95954.53;;;-2.13;100.00
29045;BME280;16133;49.486;12.176;2024-01-15T08:07:29;95960.41;;;-2.11;100.00
29045;BME280;16133;49.486;12.176;2024-01-15T08:09:54;95949.47;;;-2.05;100.00
29045;BME280;16133;49.486;12.176;2024-01-15T08:12:20;95955.63;;;-1.96;100.00
29045;BME280;16133;49.486;12.176;2024-01-15T08:14:45;95944.00;;;-1.92;100.00
29045;BME280;16133;49.486;12.176;2024-01-15T08:17:11;95959.03;;;-1.86;100.00
29045;BME280;16133;49.486;12.176;2024-01-15T08:19:36;95964.47;;;-1.70;100.00
29045;BME280;16133;49.486;12.176;2024-01-15T08:22:02;95951.75;;;-1.73;100.00
29045;BME280;16133;49.486;12.176;2024-01-15T08:24:27;95953.78;;;-1.67;100.00
29045;BME280;16133;49.486;12.176;2024-01-15T08:26:53;95954.06;;;-1.70;100.00
29045;BME280;16133;49.486;12.176;2024-01-15T08:29:19;95964.75;;;-1.73;100.00
29045;BME280;16133;49.486;12.176;2024-01-15T08:31:46;95961.47;;;-1.75;100.00
29045;BME280;16133;49.486;12.176;2024-01-15T08:34:11;95959.00;;;-1.67;100.00
29045;BME280;16133;49.486;12.176;2024-01-15T08:36:37;95960.06;;;-1.60;100.00
29045;BME280;16133;49.486;12.176;2024-01-15T08:39:02;95957.47;;;-1.50;100.00
29045;BME280;16133;49.486;12.176;2024-01-15T08:41:30;95958.09;;;-1.38;100.00
29045;BME280;16133;49.486;12.176;2024-01-15T08:43:55;95949.13;;;-1.26;100.00
29045;BME280;16133;49.486;12.176;2024-01-15T08:46:21;95950.59;;;-1.14;100.00
29045;BME280;16133;49.486;12.176;2024-01-15T08:48:46;95952.13;;;-1.12;100.00
29045;BME280;16133;49.486;12.176;2024-01-15T08:51:11;95946.19;;;-1.04;100.00
29045;BME280;16133;49.486;12.176;2024-01-15T08:53:37;95937.38;;;-0.93;100.00
29045;BME280;16133;49.486;12.176;2024-01-15T08:56:02;95941.75;;;-0.94;100.00
29045;BME280;16133;49.486;12.176;2024-01-15T08:58:28;95937.28;;;-0.84;100.00
29045;BME280;16133;49.486;12.176;2024-01-15T09:00:53;95939.25;;;-0.68;100.00
29045;BME280;16133;49.486;12.176;2024-01-15T09:03:19;95949.19;;;-0.54;100.00
29045;BME280;16133;49.486;12.176;2024-01-15T09:05:44;95942.25;;;-0.45;100.00
29045;BME280;16133;49.486;12.176;2024-01-15T09:08:09;95945.25;;;-0.40;100.00
29045;BME280;16133;49.486;12.176;2024-01-15T09:10:35;95945.13;;;-0.39;100.00
29045;BME280;16133;49.486;12.176;2024-01-15T09:13:00;95943.91;;;-0.44;100.00
29045;BME280;16133;49.486;12.176;2024-01-15T09:15:26;95930.28;;;-0.56;100.00
29045;BME280;16133;49.486;12.176;2024-01-15T09:17:51;95944.56;;;-0.60;100.00
29045;BME280;16133;49.486;12.176;2024-01-15T09:20:16;95949.53;;;-0.67;100.00
29045;BME280;16133;49.486;12.176;2024-01-15T09:22:42;95946.75;;;-0.83;100.00
29045;BME280;16133;49.486;12.176;2024-01-15T09:25:08;95951.19;;;-0.93;100.00
29045;BME280;16133;49.486;12.176;2024-01-15T09:27:35;95943.41;;;-0.93;100.00
29045;BME280;16133;49.486;12.176;2024-01-15T09:30:01;95947.09;;;-0.96;100.00
29045;BME280;16133;49.486;12.176;2024-01-15T09:32:26;95952.25;;;-0.86;100.00
29045;BME280;16133;49.486;12.176;2024-01-15T09:34:51;95950.72;;;-0.79;100.00
29045;BME280;16133;49.486;12.176;2024-01-15T09:37:17;95956.63;;;-0.59;100.00
29045;BME280;16133;49.486;12.176;2024-01-15T09:39:42;95947.84;;;-0.40;100.00
29045;BME280;16133;49.486;12.176;2024-01-15T09:42:08;95947.41;;;-0.36;100.00
29045;BME280;16133;49.486;12.176;2024-01-15T09:44:36;95942.72;;;-0.32;100.00
29045;BME280;16133;49.486;12.176;2024-01-15T09:47:01;95941.97;;;-0.07;100.00
29045;BME280;16133;49.486;12.176;2024-01-15T09:49:27;95935.81;;;0.20;100.00
29045;BME280;16133;49.486;12.176;2024-01-15T09:51:56;95929.59;;;0.64;100.00
29045;BME280;16133;49.486;12.176;2024-01-15T09:54:22;95926.38;;;1.12;100.00
29045;BME280;16133;49.486;12.176;2024-01-15T09:56:49;95929.44;;;1.41;100.00
29045;BME280;16133;49.486;12.176;2024-01-15T09:59:18;95929.41;;;1.33;97.03
29045;BME280;16133;49.486;12.176;2024-01-15T10:01:44;95904.84;;;1.10;96.08
29045;BME280;16133;49.486;12.176;2024-01-15T10:04:13;95935.84;;;1.05;96.95
29045;BME280;16133;49.486;12.176;2024-01-15T10:06:39;95929.59;;;0.98;96.49
29045;BME280;16133;49.486;12.176;2024-01-15T10:09:08;95933.19;;;0.97;97.58
29045;BME280;16133;49.486;12.176;2024-01-15T10:11:34;95926.31;;;0.96;96.90
29045;BME280;16133;49.486;12.176;2024-01-15T10:14:04;95926.00;;;0.91;97.86
29045;BME280;16133;49.486;12.176;2024-01-15T10:16:30;95924.94;;;0.76;97.23
29045;BME280;16133;49.486;12.176;2024-01-15T10:18:55;95925.81;;;0.59;97.71
29045;BME280;16133;49.486;12.176;2024-01-15T10:21:20;95917.66;;;0.54;98.88
29045;BME280;16133;49.486;12.176;2024-01-15T10:23:46;95921.38;;;0.51;99.95
29045;BME280;16133;49.486;12.176;2024-01-15T10:26:12;95919.06;;;0.48;100.00
29045;BME280;16133;49.486;12.176;2024-01-15T10:28:37;95909.91;;;0.44;100.00
29045;BME280;16133;49.486;12.176;2024-01-15T10:31:02;95906.75;;;0.32;100.00
29045;BME280;16133;49.486;12.176;2024-01-15T10:33:28;95900.59;;;0.16;100.00
29045;BME280;16133;49.486;12.176;2024-01-15T10:35:55;95898.75;;;0.08;100.00
29045;BME280;16133;49.486;12.176;2024-01-15T10:38:21;95891.22;;;0.05;100.00
29045;BME280;16133;49.486;12.176;2024-01-15T10:40:48;95892.50;;;0.01;100.00
29045;BME280;16133;49.486;12.176;2024-01-15T10:43:15;95895.41;;;-0.02;100.00
29045;BME280;16133;49.486;12.176;2024-01-15T10:45:44;95893.06;;;0.13;100.00
29045;BME280;16133;49.486;12.176;2024-01-15T10:48:10;95905.03;;;0.23;100.00
29045;BME280;16133;49.486;12.176;2024-01-15T10:50:35;95901.56;;;0.15;100.00
29045;BME280;16133;49.486;12.176;2024-01-15T10:53:01;95898.75;;;0.08;100.00
29045;BME280;16133;49.486;12.176;2024-01-15T10:55:29;95892.81;;;-0.02;100.00
29045;BME280;16133;49.486;12.176;2024-01-15T10:57:54;95889.94;;;0.09;100.00
29045;BME280;16133;49.486;12.176;2024-01-15T11:00:21;95886.13;;;0.21;100.00
29045;BME280;16133;49.486;12.176;2024-01-15T11:02:47;95880.03;;;0.38;100.00
29045;BME280;16133;49.486;12.176;2024-01-15T11:05:12;95873.88;;;0.47;100.00
29045;BME280;16133;49.486;12.176;2024-01-15T11:07:39;95881.75;;;0.56;100.00
29045;BME280;16133;49.486;12.176;2024-01-15T11:10:06;95887.31;;;0.53;100.00
29045;BME280;16133;49.486;12.176;2024-01-15T11:12:35;95889.53;;;0.47;100.00
29045;BME280;16133;49.486;12.176;2024-01-15T11:15:03;95886.25;;;0.37;100.00
29045;BME280;16133;49.486;12.176;2024-01-15T11:18:02;95902.47;;;0.31;100.00
29045;BME280;16133;49.486;12.176;2024-01-15T11:20:30;95889.63;;;0.30;100.00
29045;BME280;16133;49.486;12.176;2024-01-15T11:22:57;95886.19;;;0.29;100.00
29045;BME280;16133;49.486;12.176;2024-01-15T11:25:34;95887.81;;;0.30;100.00
29045;BME280;16133;49.486;12.176;2024-01-15T11:28:00;95880.50;;;0.34;100.00
29045;BME280;16133;49.486;12.176;2024-01-15T11:30:25;95874.97;;;0.37;100.00
29045;BME280;16133;49.486;12.176;2024-01-15T11:32:51;95871.09;;;0.41;100.00
29045;BME280;16133;49.486;12.176;2024-01-15T11:35:17;95869.00;;;0.44;100.00
29045;BME280;16133;49.486;12.176;2024-01-15T11:38:02;95859.69;;;0.50;100.00
29045;BME280;16133;49.486;12.176;2024-01-15T11:42:59;95856.59;;;0.46;100.00
29045;BME280;16133;49.486;12.176;2024-01-15T11:45:24;95859.88;;;0.48;100.00
29045;BME280;16133;49.486;12.176;2024-01-15T11:48:14;95859.69;;;0.42;100.00
29045;BME280;16133;49.486;12.176;2024-01-15T11:50:45;95862.44;;;0.40;100.00
29045;BME280;16133;49.486;12.176;2024-01-15T11:53:43;95865.88;;;0.41;100.00
29045;BME280;16133;49.486;12.176;2024-01-15T11:56:21;95859.16;;;0.38;100.00
29045;BME280;16133;49.486;12.176;2024-01-15T11:58:47;95858.88;;;0.41;100.00
29045;BME280;16133;49.486;12.176;2024-01-15T12:01:13;95861.03;;;0.46;100.00
29045;BME280;16133;49.486;12.176;2024-01-15T12:03:38;95856.09;;;0.43;100.00
29045;BME280;16133;49.486;12.176;2024-01-15T12:06:07;95862.59;;;0.39;100.00
29045;BME280;16133;49.486;12.176;2024-01-15T12:08:32;95863.56;;;0.38;100.00
29045;BME280;16133;49.486;12.176;2024-01-15T12:10:58;95868.88;;;0.28;100.00
29045;BME280;16133;49.486;12.176;2024-01-15T12:13:23;95854.97;;;0.20;100.00
29045;BME280;16133;49.486;12.176;2024-01-15T12:15:49;95854.16;;;0.19;100.00
29045;BME280;16133;49.486;12.176;2024-01-15T12:18:17;95857.44;;;0.21;100.00
29045;BME280;16133;49.486;12.176;2024-01-15T12:20:44;95843.22;;;0.16;100.00
29045;BME280;16133;49.486;12.176;2024-01-15T12:23:12;95838.22;;;0.22;100.00
29045;BME280;16133;49.486;12.176;2024-01-15T12:25:39;95833.59;;;0.16;100.00
29045;BME280;16133;49.486;12.176;2024-01-15T12:28:05;95824.31;;;0.14;100.00
29045;BME280;16133;49.486;12.176;2024-01-15T12:30:34;95826.97;;;0.22;100.00
29045;BME280;16133;49.486;12.176;2024-01-15T12:33:03;95824.88;;;0.25;100.00
29045;BME280;16133;49.486;12.176;2024-01-15T12:35:29;95831.09;;;0.32;100.00
29045;BME280;16133;49.486;12.176;2024-01-15T12:37:55;95820.56;;;0.42;100.00
29045;BME280;16133;49.486;12.176;2024-01-15T12:40:21;95832.16;;;0.47;100.00
29045;BME280;16133;49.486;12.176;2024-01-15T12:42:47;95825.97;;;0.48;100.00